createdAt,value
2022-12-08T00:00:43.371Z,5.75
2022-12-08T00:02:45.426Z,5.49
2022-12-08T00:05:06.340Z,5.25
2022-12-08T00:07:27.639Z,5.06
2022-12-08T00:09:38.700Z,5.18
2022-12-08T00:11:44.447Z,5.37
2022-12-08T00:13:46.521Z,5.52
2022-12-08T00:15:48.177Z,5.58
2022-12-08T00:17:49.751Z,5.55
2022-12-08T00:19:51.364Z,5.61
2022-12-08T00:21:53.649Z,5.54
2022-12-08T00:23:56.300Z,5.50
2022-12-08T00:26:02.341Z,5.54
2022-12-08T00:28:04.186Z,5.63
2022-12-08T00:30:07.082Z,5.70
2022-12-08T00:32:08.787Z,5.77
2022-12-08T00:34:12.572Z,5.72
2022-12-08T00:36:14.774Z,5.75
2022-12-08T00:38:16.705Z,5.82
2022-12-08T00:40:18.527Z,5.87
2022-12-08T00:42:20.164Z,5.88
2022-12-08T00:44:21.890Z,5.91
2022-12-08T00:46:23.551Z,5.92
2022-12-08T00:48:25.337Z,5.94
2022-12-08T00:50:26.996Z,5.85
2022-12-08T00:52:28.638Z,5.72
2022-12-08T00:54:30.316Z,5.73
2022-12-08T00:56:32.488Z,5.75
2022-12-08T00:58:34.092Z,5.77
2022-12-08T01:00:35.904Z,5.82
2022-12-08T01:02:37.747Z,5.85
2022-12-08T01:04:39.369Z,5.89
2022-12-08T01:06:41.905Z,5.99
2022-12-08T01:08:43.664Z,6.04
2022-12-08T01:10:45.371Z,6.07
2022-12-08T01:12:47.036Z,6.08
2022-12-08T01:14:48.688Z,6.13
2022-12-08T01:16:50.463Z,6.11
2022-12-08T01:18:52.395Z,6.05
2022-12-08T01:20:53.995Z,5.99
2022-12-08T01:22:55.688Z,5.98
2022-12-08T01:24:57.409Z,6.02
2022-12-08T01:26:59.012Z,6.08
2022-12-08T01:29:00.686Z,6.08
2022-12-08T01:31:02.783Z,6.13
2022-12-08T01:33:04.533Z,6.09
2022-12-08T01:35:06.408Z,6.10
2022-12-08T01:37:08.115Z,6.09
2022-12-08T01:39:17.590Z,6.05
2022-12-08T01:41:24.049Z,6.04
2022-12-08T01:43:25.884Z,6.03
2022-12-08T01:45:31.847Z,6.03
2022-12-08T01:47:42.465Z,6.03
2022-12-08T01:49:44.142Z,6.03
2022-12-08T01:51:57.668Z,6.00
2022-12-08T01:53:59.371Z,5.92
2022-12-08T01:56:08.629Z,5.87
2022-12-08T01:58:31.479Z,5.91
2022-12-08T02:00:33.035Z,5.90
2022-12-08T02:02:59.412Z,5.93
2022-12-08T02:05:02.142Z,5.79
2022-12-08T02:07:07.957Z,5.77
2022-12-08T02:09:10.207Z,5.75
2022-12-08T02:11:12.565Z,5.80
2022-12-08T02:13:16.473Z,5.85
2022-12-08T02:15:18.082Z,5.84
2022-12-08T02:17:35.609Z,5.82
2022-12-08T02:19:58.103Z,5.62
2022-12-08T02:22:24.190Z,5.60
2022-12-08T02:24:28.692Z,5.63
2022-12-08T02:26:53.285Z,5.66
2022-12-08T02:28:55.061Z,5.70
2022-12-08T02:31:46.816Z,5.70
2022-12-08T02:34:03.748Z,5.74
2022-12-08T02:36:08.391Z,5.77
2022-12-08T02:38:26.222Z,5.79
2022-12-08T02:40:33.809Z,5.74
2022-12-08T02:43:01.106Z,5.44
2022-12-08T02:45:19.375Z,5.37
2022-12-08T02:47:22.641Z,5.25
2022-12-08T02:49:33.863Z,5.24
2022-12-08T02:51:35.671Z,5.31
2022-12-08T02:53:37.378Z,5.38
2022-12-08T02:56:00.790Z,5.45
2022-12-08T02:58:28.732Z,5.53
2022-12-08T03:00:38.540Z,5.50
2022-12-08T03:02:49.258Z,5.32
2022-12-08T03:04:58.714Z,5.32
2022-12-08T03:07:09.144Z,5.38
2022-12-08T03:09:17.866Z,5.42
2022-12-08T03:12:06.858Z,5.45
2022-12-08T03:14:10.906Z,5.48
2022-12-08T03:16:16.996Z,5.44
2022-12-08T03:18:21.176Z,5.46
2022-12-08T03:20:25.479Z,5.50
2022-12-08T03:22:28.050Z,5.47
2022-12-08T03:24:33.115Z,5.46
2022-12-08T03:26:41.702Z,5.51
2022-12-08T03:28:43.374Z,5.55
2022-12-08T03:30:46.341Z,5.58
2022-12-08T03:32:53.039Z,5.60
2022-12-08T03:34:57.070Z,5.63
2022-12-08T03:37:00.783Z,5.61
2022-12-08T03:39:02.458Z,5.22
2022-12-08T03:41:19.460Z,5.14
2022-12-08T03:43:21.090Z,5.16
2022-12-08T03:45:22.750Z,5.24
2022-12-08T03:47:24.417Z,5.33
2022-12-08T03:49:26.016Z,5.39
2022-12-08T03:51:27.631Z,5.41
2022-12-08T03:53:29.297Z,5.26
2022-12-08T03:55:30.970Z,5.22
2022-12-08T03:57:32.583Z,5.22
2022-12-08T03:59:34.453Z,5.31
2022-12-08T04:01:36.145Z,5.38
2022-12-08T04:03:37.829Z,5.45
2022-12-08T04:05:39.628Z,5.44
2022-12-08T04:07:41.316Z,5.47
2022-12-08T04:09:43.113Z,5.48
2022-12-08T04:11:44.791Z,5.47
2022-12-08T04:13:46.482Z,5.51
2022-12-08T04:15:48.437Z,5.44
2022-12-08T04:17:50.230Z,5.49
2022-12-08T04:19:51.920Z,5.56
2022-12-08T04:21:53.568Z,5.60
2022-12-08T04:24:00.873Z,5.50
2022-12-08T04:26:03.362Z,5.46
2022-12-08T04:28:05.790Z,5.49
2022-12-08T04:30:09.984Z,5.54
2022-12-08T04:32:11.575Z,5.62
2022-12-08T04:34:13.310Z,5.61
2022-12-08T04:36:15.175Z,5.61
2022-12-08T04:38:17.418Z,5.62
2022-12-08T04:40:19.080Z,5.69
2022-12-08T04:42:20.943Z,5.74
2022-12-08T04:44:22.611Z,5.43
2022-12-08T04:46:24.339Z,5.31
2022-12-08T04:48:26.025Z,5.25
2022-12-08T04:50:28.197Z,5.26
2022-12-08T04:52:29.915Z,5.26
2022-12-08T04:54:31.727Z,4.81
2022-12-08T04:56:33.391Z,4.88
2022-12-08T04:58:35.127Z,5.04
2022-12-08T05:00:36.855Z,5.18
2022-12-08T05:02:38.690Z,5.07
2022-12-08T05:04:40.482Z,5.11
2022-12-08T05:06:42.131Z,5.18
2022-12-08T05:08:44.032Z,5.30
2022-12-08T05:10:45.758Z,5.37
2022-12-08T05:12:47.426Z,5.34
2022-12-08T05:14:49.026Z,5.19
2022-12-08T05:16:50.842Z,5.03
2022-12-08T05:18:52.503Z,5.06
2022-12-08T05:20:54.155Z,5.16
2022-12-08T05:22:55.860Z,5.24
2022-12-08T05:24:57.505Z,5.32
2022-12-08T05:26:59.214Z,5.40
2022-12-08T05:29:01.273Z,5.37
2022-12-08T05:31:03.002Z,5.25
2022-12-08T05:33:04.613Z,5.06
2022-12-08T05:35:06.800Z,4.99
2022-12-08T05:37:08.454Z,4.90
2022-12-08T05:39:13.961Z,4.90
2022-12-08T05:41:18.052Z,4.91
2022-12-08T05:43:19.928Z,4.88
2022-12-08T05:45:21.588Z,4.93
2022-12-08T05:47:23.189Z,5.04
2022-12-08T05:49:24.861Z,5.17
2022-12-08T05:51:26.961Z,5.26
2022-12-08T05:53:28.604Z,5.31
2022-12-08T05:55:30.451Z,5.30
2022-12-08T05:57:32.172Z,5.30
2022-12-08T05:59:33.881Z,5.33
2022-12-08T06:01:35.671Z,5.37
2022-12-08T06:03:37.457Z,5.40
2022-12-08T06:05:41.051Z,5.43
2022-12-08T06:07:42.777Z,5.34
2022-12-08T06:09:44.548Z,5.25
2022-12-08T06:11:47.303Z,4.45
2022-12-08T06:13:49.789Z,4.25
2022-12-08T06:15:51.397Z,4.38
2022-12-08T06:17:53.090Z,4.59
2022-12-08T06:19:54.722Z,4.74
2022-12-08T06:21:56.327Z,4.87
2022-12-08T06:23:58.029Z,4.97
2022-12-08T06:26:07.639Z,5.06
2022-12-08T06:28:09.269Z,5.15
2022-12-08T06:30:11.156Z,5.16
2022-12-08T06:32:13.081Z,5.12
2022-12-08T06:34:14.740Z,5.20
2022-12-08T06:36:18.584Z,5.22
2022-12-08T06:38:20.179Z,5.30
2022-12-08T06:40:21.860Z,5.42
2022-12-08T06:42:41.941Z,5.47
2022-12-08T06:44:43.824Z,5.51
2022-12-08T06:46:45.427Z,5.59
2022-12-08T06:48:47.534Z,5.68
2022-12-08T06:50:49.162Z,5.77
2022-12-08T06:53:02.772Z,5.84
2022-12-08T06:55:07.129Z,5.88
2022-12-08T06:57:08.756Z,5.94
2022-12-08T06:59:10.621Z,6.01
2022-12-08T07:01:13.827Z,6.05
2022-12-08T07:03:15.583Z,5.82
2022-12-08T07:05:17.272Z,5.68
2022-12-08T07:07:18.852Z,5.74
2022-12-08T07:09:20.728Z,5.73
2022-12-08T07:11:22.871Z,5.56
2022-12-08T07:13:24.829Z,5.47
2022-12-08T07:15:26.462Z,5.19
2022-12-08T07:17:28.071Z,4.77
2022-12-08T07:19:29.837Z,4.44
2022-12-08T07:21:32.688Z,4.24
2022-12-08T07:23:34.541Z,4.36
2022-12-08T07:25:36.267Z,4.63
2022-12-08T07:27:37.848Z,4.93
2022-12-08T07:29:39.467Z,5.17
2022-12-08T07:31:41.101Z,5.32
2022-12-08T07:33:43.235Z,5.20
2022-12-08T07:35:49.110Z,5.42
2022-12-08T07:37:51.197Z,5.68
2022-12-08T07:39:52.809Z,5.93
2022-12-08T07:41:54.390Z,6.14
2022-12-08T07:43:56.567Z,6.33
2022-12-08T07:45:58.223Z,6.52
2022-12-08T07:47:59.987Z,6.73
2022-12-08T07:50:01.851Z,6.84
2022-12-08T07:52:03.751Z,6.96
2022-12-08T07:54:05.365Z,7.07
2022-12-08T07:56:08.163Z,7.14
2022-12-08T07:58:10.820Z,7.20
2022-12-08T08:00:13.176Z,7.29
2022-12-08T08:02:24.951Z,7.35
2022-12-08T08:04:27.596Z,7.30
2022-12-08T08:06:29.274Z,7.27
2022-12-08T08:08:31.030Z,7.24
2022-12-08T08:10:32.711Z,7.19
2022-12-08T08:12:34.326Z,7.11
2022-12-08T08:14:36.027Z,7.06
2022-12-08T08:16:38.789Z,7.05
2022-12-08T08:18:40.580Z,7.02
2022-12-08T08:20:42.432Z,7.03
2022-12-08T08:22:45.771Z,7.10
2022-12-08T08:24:47.369Z,7.14
2022-12-08T08:26:49.040Z,7.20
2022-12-08T08:28:50.634Z,7.29
2022-12-08T08:30:52.439Z,7.32
2022-12-08T08:32:54.127Z,7.30
2022-12-08T08:34:55.743Z,7.34
2022-12-08T08:36:57.407Z,7.35
2022-12-08T08:38:59.187Z,7.37
2022-12-08T08:41:02.976Z,7.41
2022-12-08T08:43:06.255Z,7.42
2022-12-08T08:45:08.305Z,7.41
2022-12-08T08:47:09.928Z,7.41
2022-12-08T08:49:11.565Z,7.46
2022-12-08T08:51:14.484Z,7.43
2022-12-08T08:53:16.158Z,7.44
2022-12-08T08:55:18.166Z,7.50
2022-12-08T08:57:25.320Z,7.52
2022-12-08T08:59:27.986Z,7.58
2022-12-08T09:01:30.193Z,7.35
2022-12-08T09:03:32.096Z,7.21
2022-12-08T09:05:33.692Z,7.28
2022-12-08T09:07:35.376Z,7.39
2022-12-08T09:09:37.516Z,7.53
2022-12-08T09:11:39.115Z,7.62
2022-12-08T09:13:40.799Z,7.70
2022-12-08T09:15:42.643Z,7.69
2022-12-08T09:17:44.596Z,7.73
2022-12-08T09:19:46.234Z,7.84
2022-12-08T09:21:47.999Z,7.82
2022-12-08T09:23:59.233Z,7.83
2022-12-08T09:26:01.095Z,7.90
2022-12-08T09:28:02.950Z,7.98
2022-12-08T09:30:05.306Z,8.09
2022-12-08T09:32:07.174Z,8.20
2022-12-08T09:34:09.357Z,8.25
2022-12-08T09:36:11.219Z,8.30
2022-12-08T09:38:13.812Z,8.39
2022-12-08T09:40:18.003Z,8.57
2022-12-08T09:42:42.548Z,8.69
2022-12-08T09:45:04.250Z,8.77
2022-12-08T09:47:14.095Z,8.83
2022-12-08T09:49:19.104Z,9.01
2022-12-08T09:51:20.734Z,8.97
2022-12-08T09:53:43.903Z,9.14
2022-12-08T09:56:21.120Z,9.17
2022-12-08T09:58:47.596Z,9.02
2022-12-08T10:00:49.259Z,9.08
2022-12-08T10:02:50.981Z,9.23
2022-12-08T10:04:55.395Z,9.34
2022-12-08T10:07:04.969Z,9.44
2022-12-08T10:09:37.162Z,9.55
2022-12-08T10:11:58.975Z,9.68
2022-12-08T10:14:25.965Z,9.99
2022-12-08T10:16:40.958Z,10.21
2022-12-08T10:18:42.866Z,10.33
2022-12-08T10:20:47.670Z,10.01
2022-12-08T10:22:57.205Z,9.91
2022-12-08T10:25:09.648Z,10.05
2022-12-08T10:27:12.886Z,10.26
2022-12-08T10:29:15.212Z,10.35
2022-12-08T10:31:19.491Z,10.53
2022-12-08T10:33:22.488Z,10.59
2022-12-08T10:35:25.366Z,10.10
2022-12-08T10:37:27.027Z,9.97
2022-12-08T10:39:31.726Z,10.04
2022-12-08T10:41:33.337Z,10.32
2022-12-08T10:43:37.153Z,10.59
2022-12-08T10:45:41.636Z,10.78
2022-12-08T10:47:45.518Z,10.74
2022-12-08T10:49:48.130Z,10.76
2022-12-08T10:51:49.766Z,10.76
2022-12-08T10:53:51.457Z,10.66
2022-12-08T10:56:06.854Z,10.78
2022-12-08T10:58:36.155Z,11.01
2022-12-08T11:00:39.225Z,11.04
2022-12-08T11:02:54.445Z,10.63
2022-12-08T11:05:00.238Z,10.44
2022-12-08T11:07:03.574Z,10.31
2022-12-08T11:09:27.787Z,10.19
2022-12-08T11:11:56.878Z,10.30
2022-12-08T11:13:58.672Z,10.22
2022-12-08T11:16:00.431Z,10.18
2022-12-08T11:18:09.871Z,10.27
2022-12-08T11:20:11.713Z,10.28
2022-12-08T11:22:32.509Z,10.33
2022-12-08T11:24:37.645Z,10.49
2022-12-08T11:26:39.839Z,10.38
2022-12-08T11:28:41.477Z,10.26
2022-12-08T11:30:47.017Z,10.31
2022-12-08T11:32:57.378Z,10.30
2022-12-08T11:35:02.665Z,10.15
2022-12-08T11:37:05.801Z,10.05
2022-12-08T11:39:10.806Z,10.16
2022-12-08T11:41:16.985Z,10.30
2022-12-08T11:43:21.653Z,10.34
2022-12-08T11:45:29.384Z,10.56
2022-12-08T11:47:44.008Z,10.78
2022-12-08T11:52:00.271Z,11.12
2022-12-08T11:54:27.854Z,11.20
2022-12-08T11:56:34.126Z,11.27
2022-12-08T11:58:42.394Z,11.35
2022-12-08T12:00:44.259Z,11.42
2022-12-08T12:02:50.320Z,11.53
2022-12-08T12:05:46.758Z,11.46
2022-12-08T12:08:15.766Z,11.41
2022-12-08T12:10:20.283Z,11.31
2022-12-08T12:12:39.266Z,11.16
2022-12-08T12:15:18.954Z,11.10
2022-12-08T12:17:35.528Z,11.07
2022-12-08T12:19:39.423Z,11.09
2022-12-08T12:21:42.635Z,11.15
2022-12-08T12:23:54.249Z,11.24
2022-12-08T12:25:59.134Z,11.33
2022-12-08T12:28:03.812Z,11.30
2022-12-08T12:30:18.303Z,11.27
2022-12-08T12:32:20.239Z,11.28
2022-12-08T12:34:52.336Z,11.36
2022-12-08T12:36:58.490Z,11.44
2022-12-08T12:39:01.190Z,11.29
2022-12-08T12:41:04.431Z,11.31
2022-12-08T12:43:14.141Z,11.32
2022-12-08T12:45:21.734Z,11.37
2022-12-08T12:47:56.619Z,11.26
2022-12-08T12:50:06.833Z,10.95
2022-12-08T12:52:21.077Z,10.89
2022-12-08T12:54:26.972Z,10.89
2022-12-08T12:56:50.158Z,10.66
2022-12-08T12:58:53.983Z,10.63
2022-12-08T13:01:10.547Z,10.73
2022-12-08T13:03:15.448Z,10.82
2022-12-08T13:05:24.033Z,10.85
2022-12-08T13:07:29.055Z,10.92
2022-12-08T13:09:34.402Z,10.99
2022-12-08T13:11:48.643Z,10.97
2022-12-08T13:14:00.278Z,10.98
2022-12-08T13:16:18.930Z,11.04
2022-12-08T13:18:25.305Z,11.12
2022-12-08T13:20:27.077Z,11.10
2022-12-08T13:22:58.536Z,11.09
2022-12-08T13:25:38.608Z,11.14
2022-12-08T13:27:53.071Z,11.15
2022-12-08T13:30:52.308Z,11.15
2022-12-08T13:35:21.329Z,11.20
2022-12-08T13:37:29.536Z,11.19
2022-12-08T13:39:36.907Z,11.20
2022-12-08T13:41:41.742Z,11.17
2022-12-08T13:44:31.116Z,11.10
2022-12-08T13:47:02.729Z,11.05
2022-12-08T13:50:36.636Z,11.04
2022-12-08T13:57:02.571Z,10.99
2022-12-08T13:59:09.250Z,10.94
2022-12-08T14:01:19.953Z,10.94
2022-12-08T14:03:21.793Z,10.94
2022-12-08T14:05:47.669Z,10.91
2022-12-08T14:07:48.811Z,10.57
2022-12-08T14:09:51.330Z,10.32
2022-12-08T14:12:06.021Z,10.36
2022-12-08T14:14:09.391Z,10.42
2022-12-08T14:16:28.473Z,10.45
2022-12-08T14:18:31.590Z,10.50
2022-12-08T14:20:51.915Z,10.51
2022-12-08T14:22:57.393Z,10.47
2022-12-08T14:24:59.615Z,10.35
2022-12-08T14:27:04.063Z,10.39
2022-12-08T14:29:08.867Z,10.43
2022-12-08T14:31:14.114Z,10.45
2022-12-08T14:33:17.461Z,10.46
2022-12-08T14:35:26.471Z,10.42
2022-12-08T14:37:31.791Z,10.27
2022-12-08T14:39:33.391Z,10.07
2022-12-08T14:41:34.993Z,9.99
2022-12-08T14:43:36.611Z,10.01
2022-12-08T14:45:41.396Z,10.02
2022-12-08T14:47:43.314Z,10.05
2022-12-08T14:49:44.922Z,10.10
2022-12-08T14:51:46.546Z,10.12
2022-12-08T14:54:01.027Z,10.15
2022-12-08T14:56:07.808Z,10.15
2022-12-08T14:58:17.911Z,10.06
2022-12-08T15:00:20.766Z,9.91
2022-12-08T15:02:29.483Z,9.77
2022-12-08T15:04:31.152Z,9.75
2022-12-08T15:06:32.804Z,9.79
2022-12-08T15:08:35.128Z,9.84
2022-12-08T15:10:39.924Z,9.91
2022-12-08T15:13:00.250Z,9.95
2022-12-08T15:15:15.696Z,9.95
2022-12-08T15:17:33.561Z,9.93
2022-12-08T15:19:35.264Z,9.91
2022-12-08T15:21:38.903Z,9.84
2022-12-08T15:23:45.785Z,9.77
2022-12-08T15:25:47.646Z,9.75
2022-12-08T15:27:50.828Z,9.73
2022-12-08T15:29:53.174Z,9.69
2022-12-08T15:31:57.402Z,9.58
2022-12-08T15:33:59.070Z,9.54
2022-12-08T15:36:00.683Z,9.55
2022-12-08T15:38:02.386Z,9.59
2022-12-08T15:40:05.103Z,9.64
2022-12-08T15:42:12.688Z,9.45
2022-12-08T15:44:14.269Z,9.39
2022-12-08T15:46:15.919Z,9.36
2022-12-08T15:48:23.117Z,9.41
2022-12-08T15:50:24.704Z,9.46
2022-12-08T15:52:26.536Z,9.39
2022-12-08T15:54:28.146Z,9.22
2022-12-08T15:56:29.843Z,9.29
2022-12-08T15:58:53.101Z,9.35
2022-12-08T16:00:55.694Z,9.43
2022-12-08T16:03:34.104Z,9.48
2022-12-08T16:05:42.222Z,9.54
2022-12-08T16:07:42.059Z,9.58
2022-12-08T16:09:44.003Z,9.55
2022-12-08T16:12:07.196Z,9.32
2022-12-08T16:14:54.781Z,9.34
2022-12-08T16:16:31.303Z,9.38
2022-12-08T16:18:35.386Z,9.42
2022-12-08T16:21:06.031Z,9.48
2022-12-08T16:23:19.421Z,9.47
2022-12-08T16:25:22.363Z,9.41
2022-12-08T16:29:50.114Z,9.42
2022-12-08T16:31:52.218Z,9.39
2022-12-08T16:33:53.883Z,9.40
2022-12-08T16:35:55.643Z,9.44
2022-12-08T16:37:57.596Z,9.14
2022-12-08T16:39:59.379Z,9.10
2022-12-08T16:42:19.376Z,9.15
2022-12-08T16:44:21.283Z,9.15
2022-12-08T16:46:26.952Z,8.92
2022-12-08T16:48:28.718Z,8.78
2022-12-08T16:50:34.902Z,8.81
2022-12-08T16:52:36.555Z,8.91
2022-12-08T16:54:38.211Z,9.03
2022-12-08T16:56:40.000Z,8.95
2022-12-08T16:58:41.615Z,8.87
2022-12-08T17:00:43.223Z,8.88
2022-12-08T17:02:45.380Z,8.92
2022-12-08T17:04:47.068Z,9.01
2022-12-08T17:06:50.967Z,8.86
2022-12-08T17:08:52.635Z,8.82
2022-12-08T17:11:07.267Z,8.82
2022-12-08T17:13:09.966Z,8.90
2022-12-08T17:15:15.796Z,8.97
2022-12-08T17:17:17.384Z,8.89
2022-12-08T17:19:19.002Z,8.72
2022-12-08T17:21:20.805Z,8.74
2022-12-08T17:23:22.641Z,8.74
2022-12-08T17:25:27.531Z,8.59
2022-12-08T17:27:29.274Z,8.65
2022-12-08T17:29:31.855Z,8.71
2022-12-08T17:31:33.641Z,8.54
2022-12-08T17:33:35.526Z,8.53
2022-12-08T17:35:37.104Z,8.60
2022-12-08T17:37:38.802Z,8.65
2022-12-08T17:39:40.574Z,8.36
2022-12-08T17:41:42.202Z,8.37
2022-12-08T17:43:43.883Z,8.45
2022-12-08T17:45:47.465Z,8.55
2022-12-08T17:47:49.143Z,8.66
2022-12-08T17:49:50.880Z,8.61
2022-12-08T17:51:55.162Z,8.68
2022-12-08T17:53:56.784Z,8.78
2022-12-08T17:55:58.405Z,8.77
2022-12-08T17:58:00.682Z,8.66
2022-12-08T18:00:03.172Z,8.47
2022-12-08T18:02:05.102Z,8.45
2022-12-08T18:04:08.232Z,8.57
2022-12-08T18:06:11.525Z,8.54
2022-12-08T18:08:13.734Z,8.21
2022-12-08T18:10:16.007Z,8.28
2022-12-08T18:12:23.244Z,8.30
2022-12-08T18:14:25.519Z,8.25
2022-12-08T18:16:28.013Z,8.25
2022-12-08T18:18:29.697Z,8.31
2022-12-08T18:20:31.477Z,8.40
2022-12-08T18:22:33.115Z,8.48
2022-12-08T18:24:34.800Z,8.49
2022-12-08T18:26:36.538Z,8.52
2022-12-08T18:28:38.801Z,8.54
2022-12-08T18:30:40.519Z,8.58
2022-12-08T18:32:42.236Z,8.51
2022-12-08T18:34:44.455Z,8.52
2022-12-08T18:36:46.047Z,8.57
2022-12-08T18:38:47.871Z,8.57
2022-12-08T18:40:49.559Z,8.41
2022-12-08T18:42:51.256Z,8.41
2022-12-08T18:45:13.487Z,8.46
2022-12-08T18:47:17.969Z,8.47
2022-12-08T18:49:19.879Z,8.32
2022-12-08T18:51:24.442Z,8.38
2022-12-08T18:53:26.078Z,8.44
2022-12-08T18:55:27.650Z,8.51
2022-12-08T18:57:29.367Z,8.61
2022-12-08T18:59:31.026Z,8.71
2022-12-08T19:01:33.965Z,8.77
2022-12-08T19:03:35.762Z,8.85
2022-12-08T19:05:37.533Z,8.86
2022-12-08T19:07:39.247Z,8.85
2022-12-08T19:09:42.141Z,8.78
2022-12-08T19:11:44.180Z,8.76
2022-12-08T19:13:46.611Z,8.67
2022-12-08T19:15:48.465Z,8.54
2022-12-08T19:17:50.143Z,8.53
2022-12-08T19:19:52.073Z,8.58
2022-12-08T19:21:53.789Z,8.59
2022-12-08T19:23:58.350Z,8.59
2022-12-08T19:26:00.921Z,8.65
2022-12-08T19:28:02.719Z,8.68
2022-12-08T19:30:05.286Z,8.67
2022-12-08T19:32:07.414Z,8.58
2022-12-08T19:34:10.508Z,8.51
2022-12-08T19:36:16.021Z,8.49
2022-12-08T19:38:17.681Z,8.13
2022-12-08T19:40:37.847Z,7.88
2022-12-08T19:42:58.332Z,7.70
2022-12-08T19:45:07.557Z,7.58
2022-12-08T19:47:09.567Z,7.63
2022-12-08T19:49:11.274Z,7.61
2022-12-08T19:51:12.951Z,7.66
2022-12-08T19:53:15.582Z,7.80
2022-12-08T19:55:17.244Z,7.97
2022-12-08T19:57:20.623Z,8.11
2022-12-08T19:59:25.284Z,8.21
2022-12-08T20:01:27.049Z,8.25
2022-12-08T20:03:28.937Z,8.03
2022-12-08T20:05:31.922Z,7.96
2022-12-08T20:07:33.929Z,7.81
2022-12-08T20:09:35.798Z,7.86
2022-12-08T20:11:38.256Z,7.95
2022-12-08T20:13:44.699Z,7.96
2022-12-08T20:15:46.639Z,7.77
2022-12-08T20:17:48.384Z,7.47
2022-12-08T20:19:50.212Z,7.53
2022-12-08T20:21:51.963Z,7.67
2022-12-08T20:23:53.991Z,7.62
2022-12-08T20:25:55.685Z,7.67
2022-12-08T20:27:57.446Z,7.73
2022-12-08T20:29:59.064Z,7.80
2022-12-08T20:32:00.803Z,7.92
2022-12-08T20:34:02.653Z,8.01
2022-12-08T20:36:05.683Z,8.08
2022-12-08T20:38:07.312Z,8.08
2022-12-08T20:40:09.394Z,8.11
2022-12-08T20:42:14.149Z,8.11
2022-12-08T20:44:15.855Z,8.14
2022-12-08T20:46:18.268Z,8.18
2022-12-08T20:48:19.900Z,7.82
2022-12-08T20:50:21.651Z,7.03
2022-12-08T20:52:23.332Z,6.75
2022-12-08T20:54:25.172Z,6.82
2022-12-08T20:56:27.405Z,6.98
2022-12-08T20:58:29.253Z,7.04
2022-12-08T21:00:31.029Z,6.82
2022-12-08T21:02:32.954Z,6.91
2022-12-08T21:04:35.198Z,7.03
2022-12-08T21:06:36.941Z,7.18
2022-12-08T21:08:39.795Z,7.27
2022-12-08T21:10:43.930Z,7.34
2022-12-08T21:12:46.132Z,7.43
2022-12-08T21:14:48.026Z,7.49
2022-12-08T21:16:50.972Z,7.56
2022-12-08T21:18:52.990Z,7.61
2022-12-08T21:21:06.480Z,7.70
2022-12-08T21:23:08.631Z,7.76
2022-12-08T21:25:10.484Z,7.65
2022-12-08T21:27:12.276Z,7.53
2022-12-08T21:29:14.060Z,7.54
2022-12-08T21:31:18.302Z,7.51
2022-12-08T21:33:20.283Z,7.34
2022-12-08T21:35:22.165Z,7.36
2022-12-08T21:37:24.568Z,7.43
2022-12-08T21:39:26.814Z,7.50
2022-12-08T21:41:47.389Z,7.49
2022-12-08T21:43:49.113Z,7.49
2022-12-08T21:45:50.908Z,7.53
2022-12-08T21:47:52.668Z,7.51
2022-12-08T21:49:54.485Z,7.57
2022-12-08T21:51:56.616Z,7.58
2022-12-08T21:53:58.349Z,7.45
2022-12-08T21:56:00.162Z,7.45
2022-12-08T21:58:02.333Z,7.44
2022-12-08T22:00:06.856Z,7.49
2022-12-08T22:02:14.699Z,7.57
2022-12-08T22:04:21.924Z,7.63
2022-12-08T22:06:23.711Z,7.59
2022-12-08T22:08:25.534Z,7.45
2022-12-08T22:10:27.722Z,7.43
2022-12-08T22:12:29.461Z,7.46
2022-12-08T22:14:31.353Z,7.53
2022-12-08T22:16:33.188Z,7.56
2022-12-08T22:18:35.728Z,7.51
2022-12-08T22:20:43.717Z,7.44
2022-12-08T22:22:46.913Z,7.46
2022-12-08T22:24:48.680Z,7.50
2022-12-08T22:26:50.369Z,7.52
2022-12-08T22:28:52.327Z,7.56
2022-12-08T22:30:53.967Z,7.58
2022-12-08T22:32:55.597Z,7.64
2022-12-08T22:34:57.416Z,7.68
2022-12-08T22:36:59.107Z,7.69
2022-12-08T22:39:02.023Z,7.70
2022-12-08T22:41:05.059Z,7.67
2022-12-08T22:43:06.726Z,7.73
2022-12-08T22:45:09.244Z,7.75
2022-12-08T22:47:11.427Z,7.67
2022-12-08T22:49:13.150Z,7.66
2022-12-08T22:51:15.177Z,7.63
2022-12-08T22:53:17.250Z,7.57
2022-12-08T22:55:18.878Z,7.56
2022-12-08T22:57:20.476Z,7.53
2022-12-08T22:59:22.461Z,7.48
2022-12-08T23:01:26.741Z,7.46
2022-12-08T23:03:28.778Z,7.39
2022-12-08T23:05:35.138Z,7.33
2022-12-08T23:07:37.062Z,7.32
2022-12-08T23:09:38.733Z,7.34
2022-12-08T23:11:40.681Z,7.39
2022-12-08T23:13:42.335Z,7.41
2022-12-08T23:15:44.022Z,7.46
2022-12-08T23:17:46.174Z,7.50
2022-12-08T23:19:47.901Z,7.56
2022-12-08T23:21:49.730Z,7.54
2022-12-08T23:23:51.478Z,7.59
2022-12-08T23:25:53.351Z,7.61
2022-12-08T23:27:55.214Z,7.47
2022-12-08T23:29:57.096Z,7.37
2022-12-08T23:31:59.061Z,7.32
2022-12-08T23:34:02.101Z,7.35
2022-12-08T23:36:04.103Z,7.39
2022-12-08T23:38:05.719Z,7.32
2022-12-08T23:40:08.286Z,7.23
2022-12-08T23:42:10.666Z,7.27
2022-12-08T23:44:12.428Z,7.33
2022-12-08T23:46:15.801Z,6.95
2022-12-08T23:48:17.656Z,6.89
2022-12-08T23:50:19.607Z,6.98
2022-12-08T23:52:21.242Z,7.07
2022-12-08T23:54:23.165Z,7.10
2022-12-08T23:56:30.057Z,7.15
2022-12-08T23:58:32.908Z,7.10
